sensor_id;sensor_type;location;lat;lon;timestamp;P1;durP1;ratioP1;P2;durP2;ratioP2
66830;SDS011;53739;44.224;22.528;2024-01-06T00:02:06;163.00;;;69.82;;
66830;SDS011;53739;44.224;22.528;2024-01-06T00:04:32;195.27;;;91.80;;
66830;SDS011;53739;44.224;22.528;2024-01-06T00:06:58;198.50;;;84.47;;
66830;SDS011;53739;44.224;22.528;2024-01-06T00:09:24;185.50;;;87.00;;
66830;SDS011;53739;44.224;22.528;2024-01-06T00:11:50;187.38;;;86.15;;
66830;SDS011;53739;44.224;22.528;2024-01-06T00:14:17;214.73;;;100.03;;
66830;SDS011;53739;44.224;22.528;2024-01-06T00:16:43;195.88;;;91.80;;
66830;SDS011;53739;44.224;22.528;2024-01-06T00:19:09;212.07;;;98.60;;
66830;SDS011;53739;44.224;22.528;2024-01-06T00:21:35;223.77;;;99.22;;
66830;SDS011;53739;44.224;22.528;2024-01-06T00:24:01;212.50;;;100.43;;
66830;SDS011;53739;44.224;22.528;2024-01-06T00:26:27;220.27;;;101.35;;
66830;SDS011;53739;44.224;22.528;2024-01-06T00:28:53;239.88;;;112.70;;
66830;SDS011;53739;44.224;22.528;2024-01-06T00:31:19;237.52;;;110.13;;
66830;SDS011;53739;44.224;22.528;2024-01-06T00:33:45;256.08;;;111.25;;
66830;SDS011;53739;44.224;22.528;2024-01-06T00:36:12;250.45;;;107.72;;
66830;SDS011;53739;44.224;22.528;2024-01-06T00:38:38;226.55;;;104.03;;
66830;SDS011;53739;44.224;22.528;2024-01-06T00:41:04;268.17;;;118.63;;
66830;SDS011;53739;44.224;22.528;2024-01-06T00:43:30;263.73;;;115.90;;
66830;SDS011;53739;44.224;22.528;2024-01-06T00:45:56;242.45;;;110.68;;
66830;SDS011;53739;44.224;22.528;2024-01-06T00:48:22;281.20;;;124.50;;
66830;SDS011;53739;44.224;22.528;2024-01-06T00:50:48;281.67;;;120.05;;
66830;SDS011;53739;44.224;22.528;2024-01-06T00:53:14;256.17;;;117.72;;
66830;SDS011;53739;44.224;22.528;2024-01-06T00:55:40;322.98;;;135.55;;
66830;SDS011;53739;44.224;22.528;2024-01-06T00:58:07;293.10;;;130.57;;
66830;SDS011;53739;44.224;22.528;2024-01-06T01:00:33;399.35;;;174.48;;
66830;SDS011;53739;44.224;22.528;2024-01-06T01:03:00;417.33;;;194.63;;
66830;SDS011;53739;44.224;22.528;2024-01-06T01:05:26;409.75;;;188.38;;
66830;SDS011;53739;44.224;22.528;2024-01-06T01:07:52;372.45;;;168.40;;
66830;SDS011;53739;44.224;22.528;2024-01-06T01:10:18;364.90;;;170.02;;
66830;SDS011;53739;44.224;22.528;2024-01-06T01:12:44;362.25;;;154.73;;
66830;SDS011;53739;44.224;22.528;2024-01-06T01:15:10;335.83;;;148.05;;
66830;SDS011;53739;44.224;22.528;2024-01-06T01:17:36;533.08;;;217.30;;
66830;SDS011;53739;44.224;22.528;2024-01-06T01:20:02;368.90;;;154.63;;
66830;SDS011;53739;44.224;22.528;2024-01-06T01:22:28;346.52;;;148.88;;
66830;SDS011;53739;44.224;22.528;2024-01-06T01:24:54;323.65;;;142.85;;
66830;SDS011;53739;44.224;22.528;2024-01-06T01:27:21;335.45;;;142.10;;
66830;SDS011;53739;44.224;22.528;2024-01-06T01:29:47;463.98;;;200.85;;
66830;SDS011;53739;44.224;22.528;2024-01-06T01:32:15;442.45;;;188.25;;
66830;SDS011;53739;44.224;22.528;2024-01-06T01:34:41;402.02;;;171.40;;
66830;SDS011;53739;44.224;22.528;2024-01-06T01:37:07;395.75;;;170.13;;
66830;SDS011;53739;44.224;22.528;2024-01-06T01:39:33;417.55;;;178.63;;
66830;SDS011;53739;44.224;22.528;2024-01-06T01:41:59;401.58;;;175.13;;
66830;SDS011;53739;44.224;22.528;2024-01-06T01:44:25;422.58;;;184.48;;
66830;SDS011;53739;44.224;22.528;2024-01-06T01:46:51;397.40;;;175.73;;
66830;SDS011;53739;44.224;22.528;2024-01-06T01:49:17;421.65;;;188.27;;
66830;SDS011;53739;44.224;22.528;2024-01-06T01:51:44;423.15;;;182.18;;
66830;SDS011;53739;44.224;22.528;2024-01-06T01:54:10;429.52;;;191.82;;
66830;SDS011;53739;44.224;22.528;2024-01-06T01:56:36;491.38;;;213.45;;
66830;SDS011;53739;44.224;22.528;2024-01-06T01:59:13;530.72;;;226.23;;
66830;SDS011;53739;44.224;22.528;2024-01-06T02:01:39;516.35;;;232.40;;
66830;SDS011;53739;44.224;22.528;2024-01-06T02:04:06;494.33;;;213.55;;
66830;SDS011;53739;44.224;22.528;2024-01-06T02:06:32;506.50;;;218.82;;
66830;SDS011;53739;44.224;22.528;2024-01-06T02:08:58;487.45;;;216.02;;
66830;SDS011;53739;44.224;22.528;2024-01-06T02:11:24;472.92;;;210.05;;
66830;SDS011;53739;44.224;22.528;2024-01-06T02:13:50;499.83;;;227.52;;
66830;SDS011;53739;44.224;22.528;2024-01-06T02:16:16;460.17;;;203.98;;
66830;SDS011;53739;44.224;22.528;2024-01-06T02:18:42;441.55;;;200.13;;
66830;SDS011;53739;44.224;22.528;2024-01-06T02:21:09;453.75;;;201.90;;
66830;SDS011;53739;44.224;22.528;2024-01-06T02:23:35;496.63;;;218.23;;
66830;SDS011;53739;44.224;22.528;2024-01-06T02:26:02;507.40;;;227.07;;
66830;SDS011;53739;44.224;22.528;2024-01-06T02:28:28;496.85;;;226.57;;
66830;SDS011;53739;44.224;22.528;2024-01-06T02:30:54;481.42;;;217.82;;
66830;SDS011;53739;44.224;22.528;2024-01-06T02:33:20;457.08;;;198.30;;
66830;SDS011;53739;44.224;22.528;2024-01-06T02:35:49;381.35;;;166.02;;
66830;SDS011;53739;44.224;22.528;2024-01-06T02:38:15;328.58;;;143.80;;
66830;SDS011;53739;44.224;22.528;2024-01-06T02:40:41;285.20;;;125.85;;
66830;SDS011;53739;44.224;22.528;2024-01-06T02:43:08;356.65;;;143.05;;
66830;SDS011;53739;44.224;22.528;2024-01-06T02:45:35;300.40;;;126.82;;
66830;SDS011;53739;44.224;22.528;2024-01-06T02:48:01;279.20;;;119.32;;
66830;SDS011;53739;44.224;22.528;2024-01-06T02:50:27;265.77;;;113.40;;
66830;SDS011;53739;44.224;22.528;2024-01-06T02:52:53;256.20;;;110.47;;
66830;SDS011;53739;44.224;22.528;2024-01-06T02:55:19;212.18;;;97.43;;
66830;SDS011;53739;44.224;22.528;2024-01-06T02:57:45;223.68;;;95.47;;
66830;SDS011;53739;44.224;22.528;2024-01-06T03:00:11;193.15;;;93.40;;
66830;SDS011;53739;44.224;22.528;2024-01-06T03:02:41;178.55;;;81.72;;
66830;SDS011;53739;44.224;22.528;2024-01-06T03:05:08;176.00;;;81.07;;
66830;SDS011;53739;44.224;22.528;2024-01-06T03:07:34;174.50;;;81.13;;
66830;SDS011;53739;44.224;22.528;2024-01-06T03:10:00;185.85;;;84.88;;
66830;SDS011;53739;44.224;22.528;2024-01-06T03:12:27;181.85;;;86.00;;
66830;SDS011;53739;44.224;22.528;2024-01-06T03:14:53;204.55;;;90.30;;
66830;SDS011;53739;44.224;22.528;2024-01-06T03:17:20;195.60;;;88.07;;
66830;SDS011;53739;44.224;22.528;2024-01-06T03:19:46;249.65;;;107.82;;
66830;SDS011;53739;44.224;22.528;2024-01-06T03:22:12;245.52;;;102.13;;
66830;SDS011;53739;44.224;22.528;2024-01-06T03:24:39;223.48;;;98.00;;
66830;SDS011;53739;44.224;22.528;2024-01-06T03:27:05;231.63;;;104.25;;
66830;SDS011;53739;44.224;22.528;2024-01-06T03:29:31;279.95;;;116.88;;
66830;SDS011;53739;44.224;22.528;2024-01-06T03:31:58;269.92;;;115.80;;
66830;SDS011;53739;44.224;22.528;2024-01-06T03:34:24;271.23;;;114.90;;
66830;SDS011;53739;44.224;22.528;2024-01-06T03:36:50;325.77;;;136.02;;
66830;SDS011;53739;44.224;22.528;2024-01-06T03:39:16;317.65;;;131.75;;
66830;SDS011;53739;44.224;22.528;2024-01-06T03:41:42;318.27;;;130.65;;
66830;SDS011;53739;44.224;22.528;2024-01-06T03:44:08;336.85;;;142.15;;
66830;SDS011;53739;44.224;22.528;2024-01-06T03:46:34;259.98;;;115.40;;
66830;SDS011;53739;44.224;22.528;2024-01-06T03:49:01;261.33;;;113.20;;
66830;SDS011;53739;44.224;22.528;2024-01-06T03:51:27;245.35;;;111.82;;
66830;SDS011;53739;44.224;22.528;2024-01-06T03:53:53;244.10;;;106.78;;
66830;SDS011;53739;44.224;22.528;2024-01-06T03:56:19;228.15;;;101.03;;
66830;SDS011;53739;44.224;22.528;2024-01-06T03:58:46;227.30;;;99.53;;
66830;SDS011;53739;44.224;22.528;2024-01-06T04:01:12;269.38;;;113.82;;
66830;SDS011;53739;44.224;22.528;2024-01-06T04:03:38;240.00;;;109.03;;
66830;SDS011;53739;44.224;22.528;2024-01-06T04:06:07;223.13;;;100.85;;
66830;SDS011;53739;44.224;22.528;2024-01-06T04:08:33;222.70;;;99.13;;
66830;SDS011;53739;44.224;22.528;2024-01-06T04:10:59;189.75;;;87.65;;
66830;SDS011;53739;44.224;22.528;2024-01-06T04:13:25;230.90;;;105.03;;
66830;SDS011;53739;44.224;22.528;2024-01-06T04:15:52;251.60;;;114.22;;
66830;SDS011;53739;44.224;22.528;2024-01-06T04:18:18;265.48;;;119.70;;
66830;SDS011;53739;44.224;22.528;2024-01-06T04:20:44;264.65;;;120.68;;
66830;SDS011;53739;44.224;22.528;2024-01-06T04:23:10;224.23;;;98.95;;
66830;SDS011;53739;44.224;22.528;2024-01-06T04:25:36;232.57;;;99.53;;
66830;SDS011;53739;44.224;22.528;2024-01-06T04:28:02;209.20;;;96.60;;
66830;SDS011;53739;44.224;22.528;2024-01-06T04:30:28;214.75;;;96.43;;
66830;SDS011;53739;44.224;22.528;2024-01-06T04:32:54;218.70;;;98.47;;
66830;SDS011;53739;44.224;22.528;2024-01-06T04:35:22;222.35;;;97.40;;
66830;SDS011;53739;44.224;22.528;2024-01-06T04:37:48;243.63;;;106.10;;
66830;SDS011;53739;44.224;22.528;2024-01-06T04:40:14;230.13;;;102.55;;
66830;SDS011;53739;44.224;22.528;2024-01-06T04:42:40;202.20;;;86.78;;
66830;SDS011;53739;44.224;22.528;2024-01-06T04:45:07;159.30;;;69.22;;
66830;SDS011;53739;44.224;22.528;2024-01-06T04:47:33;140.32;;;61.42;;
66830;SDS011;53739;44.224;22.528;2024-01-06T04:50:00;142.98;;;61.55;;
66830;SDS011;53739;44.224;22.528;2024-01-06T04:52:26;143.75;;;60.92;;
66830;SDS011;53739;44.224;22.528;2024-01-06T04:54:52;148.30;;;60.10;;
66830;SDS011;53739;44.224;22.528;2024-01-06T04:57:19;144.20;;;58.55;;
66830;SDS011;53739;44.224;22.528;2024-01-06T04:59:45;151.02;;;59.35;;
66830;SDS011;53739;44.224;22.528;2024-01-06T05:02:11;127.35;;;53.10;;
66830;SDS011;53739;44.224;22.528;2024-01-06T05:04:38;124.03;;;54.97;;
66830;SDS011;53739;44.224;22.528;2024-01-06T05:07:04;119.22;;;56.42;;
66830;SDS011;53739;44.224;22.528;2024-01-06T05:09:30;141.32;;;61.67;;
66830;SDS011;53739;44.224;22.528;2024-01-06T05:11:56;210.95;;;89.88;;
66830;SDS011;53739;44.224;22.528;2024-01-06T05:14:22;184.18;;;85.28;;
66830;SDS011;53739;44.224;22.528;2024-01-06T05:16:48;189.10;;;87.03;;
66830;SDS011;53739;44.224;22.528;2024-01-06T05:19:14;196.68;;;88.00;;
66830;SDS011;53739;44.224;22.528;2024-01-06T05:21:45;142.88;;;70.18;;
66830;SDS011;53739;44.224;22.528;2024-01-06T05:24:11;173.95;;;81.65;;
66830;SDS011;53739;44.224;22.528;2024-01-06T05:26:37;163.38;;;74.10;;
66830;SDS011;53739;44.224;22.528;2024-01-06T05:29:03;167.80;;;74.53;;
66830;SDS011;53739;44.224;22.528;2024-01-06T05:31:30;212.35;;;90.35;;
66830;SDS011;53739;44.224;22.528;2024-01-06T05:33:56;202.07;;;89.78;;
66830;SDS011;53739;44.224;22.528;2024-01-06T05:36:22;199.98;;;85.57;;
66830;SDS011;53739;44.224;22.528;2024-01-06T05:38:48;190.63;;;82.55;;
66830;SDS011;53739;44.224;22.528;2024-01-06T05:41:15;178.68;;;85.35;;
66830;SDS011;53739;44.224;22.528;2024-01-06T05:43:41;192.85;;;85.95;;
66830;SDS011;53739;44.224;22.528;2024-01-06T05:46:07;180.90;;;84.07;;
66830;SDS011;53739;44.224;22.528;2024-01-06T05:48:35;164.27;;;77.43;;
66830;SDS011;53739;44.224;22.528;2024-01-06T05:51:02;154.77;;;68.03;;
66830;SDS011;53739;44.224;22.528;2024-01-06T05:53:30;157.30;;;70.30;;
66830;SDS011;53739;44.224;22.528;2024-01-06T05:55:56;183.23;;;81.75;;
66830;SDS011;53739;44.224;22.528;2024-01-06T05:58:23;195.38;;;83.05;;
66830;SDS011;53739;44.224;22.528;2024-01-06T06:00:49;196.57;;;84.32;;
66830;SDS011;53739;44.224;22.528;2024-01-06T06:03:16;173.52;;;77.00;;
66830;SDS011;53739;44.224;22.528;2024-01-06T06:05:42;171.57;;;78.03;;
66830;SDS011;53739;44.224;22.528;2024-01-06T06:08:08;189.98;;;85.10;;
66830;SDS011;53739;44.224;22.528;2024-01-06T06:10:34;170.90;;;75.25;;
66830;SDS011;53739;44.224;22.528;2024-01-06T06:13:16;172.75;;;76.88;;
66830;SDS011;53739;44.224;22.528;2024-01-06T06:15:42;192.95;;;86.63;;
66830;SDS011;53739;44.224;22.528;2024-01-06T06:18:09;220.27;;;105.22;;
66830;SDS011;53739;44.224;22.528;2024-01-06T06:20:35;196.02;;;90.20;;
66830;SDS011;53739;44.224;22.528;2024-01-06T06:23:01;209.63;;;96.05;;
66830;SDS011;53739;44.224;22.528;2024-01-06T06:25:27;191.25;;;91.35;;
66830;SDS011;53739;44.224;22.528;2024-01-06T06:27:53;191.70;;;89.82;;
66830;SDS011;53739;44.224;22.528;2024-01-06T06:30:19;193.90;;;92.63;;
66830;SDS011;53739;44.224;22.528;2024-01-06T06:32:45;223.05;;;107.60;;
66830;SDS011;53739;44.224;22.528;2024-01-06T06:35:12;227.65;;;105.75;;
66830;SDS011;53739;44.224;22.528;2024-01-06T06:37:38;232.48;;;115.78;;
66830;SDS011;53739;44.224;22.528;2024-01-06T06:40:05;237.32;;;113.80;;
66830;SDS011;53739;44.224;22.528;2024-01-06T06:42:31;239.27;;;114.88;;
66830;SDS011;53739;44.224;22.528;2024-01-06T06:44:57;239.00;;;111.90;;
66830;SDS011;53739;44.224;22.528;2024-01-06T06:47:23;215.23;;;100.93;;
66830;SDS011;53739;44.224;22.528;2024-01-06T06:49:49;208.98;;;109.38;;
66830;SDS011;53739;44.224;22.528;2024-01-06T06:52:16;224.30;;;108.43;;
66830;SDS011;53739;44.224;22.528;2024-01-06T06:54:42;225.52;;;102.68;;
66830;SDS011;53739;44.224;22.528;2024-01-06T06:57:08;194.82;;;99.03;;
66830;SDS011;53739;44.224;22.528;2024-01-06T06:59:34;220.38;;;101.85;;
66830;SDS011;53739;44.224;22.528;2024-01-06T07:02:00;224.40;;;111.80;;
66830;SDS011;53739;44.224;22.528;2024-01-06T07:04:26;244.07;;;118.32;;
66830;SDS011;53739;44.224;22.528;2024-01-06T07:06:52;238.82;;;114.47;;
66830;SDS011;53739;44.224;22.528;2024-01-06T07:09:18;257.92;;;125.78;;
66830;SDS011;53739;44.224;22.528;2024-01-06T07:11:48;256.92;;;126.78;;
66830;SDS011;53739;44.224;22.528;2024-01-06T07:14:14;261.30;;;126.15;;
66830;SDS011;53739;44.224;22.528;2024-01-06T07:16:40;290.85;;;143.18;;
66830;SDS011;53739;44.224;22.528;2024-01-06T07:19:06;292.88;;;145.00;;
66830;SDS011;53739;44.224;22.528;2024-01-06T07:21:32;279.75;;;141.68;;
66830;SDS011;53739;44.224;22.528;2024-01-06T07:23:59;293.17;;;142.80;;
66830;SDS011;53739;44.224;22.528;2024-01-06T07:26:26;341.45;;;158.73;;
66830;SDS011;53739;44.224;22.528;2024-01-06T07:28:52;367.38;;;172.32;;
66830;SDS011;53739;44.224;22.528;2024-01-06T07:31:18;399.40;;;184.38;;
66830;SDS011;53739;44.224;22.528;2024-01-06T07:33:44;406.90;;;189.23;;
66830;SDS011;53739;44.224;22.528;2024-01-06T07:36:10;429.92;;;197.88;;
66830;SDS011;53739;44.224;22.528;2024-01-06T07:38:37;348.75;;;166.90;;
66830;SDS011;53739;44.224;22.528;2024-01-06T07:41:03;290.27;;;134.43;;
66830;SDS011;53739;44.224;22.528;2024-01-06T07:43:32;214.38;;;107.55;;
66830;SDS011;53739;44.224;22.528;2024-01-06T07:45:58;207.88;;;99.18;;
66830;SDS011;53739;44.224;22.528;2024-01-06T07:48:24;239.15;;;110.80;;
66830;SDS011;53739;44.224;22.528;2024-01-06T07:50:50;241.23;;;114.03;;
66830;SDS011;53739;44.224;22.528;2024-01-06T07:53:17;241.85;;;105.85;;
66830;SDS011;53739;44.224;22.528;2024-01-06T07:55:43;255.40;;;116.20;;
66830;SDS011;53739;44.224;22.528;2024-01-06T07:58:09;259.67;;;117.03;;
66830;SDS011;53739;44.224;22.528;2024-01-06T08:00:37;281.77;;;130.45;;
66830;SDS011;53739;44.224;22.528;2024-01-06T08:03:03;235.50;;;113.70;;
66830;SDS011;53739;44.224;22.528;2024-01-06T08:05:31;285.27;;;130.68;;
66830;SDS011;53739;44.224;22.528;2024-01-06T08:07:57;322.90;;;144.00;;
66830;SDS011;53739;44.224;22.528;2024-01-06T08:10:24;292.13;;;134.80;;
66830;SDS011;53739;44.224;22.528;2024-01-06T08:12:50;340.30;;;152.95;;
66830;SDS011;53739;44.224;22.528;2024-01-06T08:15:16;338.50;;;159.63;;
66830;SDS011;53739;44.224;22.528;2024-01-06T08:17:42;341.33;;;160.93;;
66830;SDS011;53739;44.224;22.528;2024-01-06T08:20:08;422.23;;;203.25;;
66830;SDS011;53739;44.224;22.528;2024-01-06T08:22:34;430.88;;;210.05;;
66830;SDS011;53739;44.224;22.528;2024-01-06T08:25:00;402.38;;;201.45;;
66830;SDS011;53739;44.224;22.528;2024-01-06T08:27:27;451.83;;;222.98;;
66830;SDS011;53739;44.224;22.528;2024-01-06T08:29:53;418.13;;;207.10;;
66830;SDS011;53739;44.224;22.528;2024-01-06T08:32:20;445.15;;;217.73;;
66830;SDS011;53739;44.224;22.528;2024-01-06T08:34:46;452.85;;;218.82;;
66830;SDS011;53739;44.224;22.528;2024-01-06T08:37:12;464.35;;;229.85;;
66830;SDS011;53739;44.224;22.528;2024-01-06T08:39:39;475.65;;;249.43;;
66830;SDS011;53739;44.224;22.528;2024-01-06T08:42:06;462.08;;;234.48;;
66830;SDS011;53739;44.224;22.528;2024-01-06T08:44:32;530.60;;;283.30;;
66830;SDS011;53739;44.224;22.528;2024-01-06T08:46:58;438.55;;;219.20;;
66830;SDS011;53739;44.224;22.528;2024-01-06T08:49:24;419.48;;;203.43;;
66830;SDS011;53739;44.224;22.528;2024-01-06T08:51:50;419.30;;;200.45;;
66830;SDS011;53739;44.224;22.528;2024-01-06T08:54:16;413.48;;;194.40;;
66830;SDS011;53739;44.224;22.528;2024-01-06T08:56:42;441.25;;;214.02;;
66830;SDS011;53739;44.224;22.528;2024-01-06T08:59:09;400.15;;;198.32;;
66830;SDS011;53739;44.224;22.528;2024-01-06T09:01:35;366.77;;;176.13;;
66830;SDS011;53739;44.224;22.528;2024-01-06T09:04:02;392.05;;;192.93;;
66830;SDS011;53739;44.224;22.528;2024-01-06T09:06:28;427.10;;;205.75;;
66830;SDS011;53739;44.224;22.528;2024-01-06T09:08:54;373.42;;;177.15;;
66830;SDS011;53739;44.224;22.528;2024-01-06T09:11:20;313.52;;;152.70;;
66830;SDS011;53739;44.224;22.528;2024-01-06T09:13:46;316.23;;;155.13;;
66830;SDS011;53739;44.224;22.528;2024-01-06T09:16:13;410.95;;;199.48;;
66830;SDS011;53739;44.224;22.528;2024-01-06T09:18:39;346.02;;;166.95;;
66830;SDS011;53739;44.224;22.528;2024-01-06T09:21:05;264.13;;;132.85;;
66830;SDS011;53739;44.224;22.528;2024-01-06T09:23:32;178.18;;;96.82;;
66830;SDS011;53739;44.224;22.528;2024-01-06T09:25:58;165.13;;;87.63;;
66830;SDS011;53739;44.224;22.528;2024-01-06T09:28:24;159.77;;;82.20;;
66830;SDS011;53739;44.224;22.528;2024-01-06T09:30:50;155.95;;;78.85;;
66830;SDS011;53739;44.224;22.528;2024-01-06T09:33:19;176.07;;;88.68;;
66830;SDS011;53739;44.224;22.528;2024-01-06T09:35:45;183.43;;;92.97;;
66830;SDS011;53739;44.224;22.528;2024-01-06T09:38:11;179.45;;;93.05;;
66830;SDS011;53739;44.224;22.528;2024-01-06T09:40:41;219.18;;;106.00;;
66830;SDS011;53739;44.224;22.528;2024-01-06T09:43:08;249.13;;;111.90;;
66830;SDS011;53739;44.224;22.528;2024-01-06T09:45:35;229.88;;;108.18;;
66830;SDS011;53739;44.224;22.528;2024-01-06T09:48:04;236.38;;;115.10;;
66830;SDS011;53739;44.224;22.528;2024-01-06T09:50:33;236.93;;;117.03;;
66830;SDS011;53739;44.224;22.528;2024-01-06T09:53:00;240.10;;;114.03;;
66830;SDS011;53739;44.224;22.528;2024-01-06T09:55:30;240.75;;;116.97;;
66830;SDS011;53739;44.224;22.528;2024-01-06T09:57:56;242.88;;;117.50;;
66830;SDS011;53739;44.224;22.528;2024-01-06T10:00:23;260.88;;;128.80;;
66830;SDS011;53739;44.224;22.528;2024-01-06T10:02:50;275.50;;;133.70;;
66830;SDS011;53739;44.224;22.528;2024-01-06T10:05:17;247.00;;;123.68;;
66830;SDS011;53739;44.224;22.528;2024-01-06T10:07:43;289.95;;;135.80;;
66830;SDS011;53739;44.224;22.528;2024-01-06T10:10:10;287.30;;;131.73;;
66830;SDS011;53739;44.224;22.528;2024-01-06T10:12:37;306.33;;;142.48;;
66830;SDS011;53739;44.224;22.528;2024-01-06T10:15:04;278.50;;;140.30;;
66830;SDS011;53739;44.224;22.528;2024-01-06T10:17:31;286.48;;;136.60;;
66830;SDS011;53739;44.224;22.528;2024-01-06T10:19:57;263.52;;;131.40;;
66830;SDS011;53739;44.224;22.528;2024-01-06T10:22:23;260.67;;;132.75;;
66830;SDS011;53739;44.224;22.528;2024-01-06T10:24:50;294.42;;;143.57;;
66830;SDS011;53739;44.224;22.528;2024-01-06T10:27:16;232.90;;;121.45;;
66830;SDS011;53739;44.224;22.528;2024-01-06T10:29:42;238.05;;;120.55;;
66830;SDS011;53739;44.224;22.528;2024-01-06T10:32:08;241.20;;;128.13;;
66830;SDS011;53739;44.224;22.528;2024-01-06T10:34:35;261.65;;;145.30;;
66830;SDS011;53739;44.224;22.528;2024-01-06T10:37:02;212.23;;;110.35;;
66830;SDS011;53739;44.224;22.528;2024-01-06T10:39:28;192.85;;;98.85;;
66830;SDS011;53739;44.224;22.528;2024-01-06T10:41:55;202.80;;;106.50;;
66830;SDS011;53739;44.224;22.528;2024-01-06T10:44:23;201.77;;;99.50;;
66830;SDS011;53739;44.224;22.528;2024-01-06T10:46:50;161.48;;;85.35;;
66830;SDS011;53739;44.224;22.528;2024-01-06T10:49:17;167.50;;;90.90;;
66830;SDS011;53739;44.224;22.528;2024-01-06T10:51:46;205.77;;;105.13;;
66830;SDS011;53739;44.224;22.528;2024-01-06T10:54:13;242.48;;;120.78;;
66830;SDS011;53739;44.224;22.528;2024-01-06T10:56:41;262.65;;;123.22;;
66830;SDS011;53739;44.224;22.528;2024-01-06T10:59:08;184.90;;;91.65;;
66830;SDS011;53739;44.224;22.528;2024-01-06T11:01:37;216.57;;;103.13;;
66830;SDS011;53739;44.224;22.528;2024-01-06T11:04:03;206.52;;;98.88;;
66830;SDS011;53739;44.224;22.528;2024-01-06T11:06:30;208.75;;;96.75;;
66830;SDS011;53739;44.224;22.528;2024-01-06T11:09:18;174.65;;;84.68;;
66830;SDS011;53739;44.224;22.528;2024-01-06T11:11:45;155.82;;;78.65;;
66830;SDS011;53739;44.224;22.528;2024-01-06T11:14:19;151.75;;;75.18;;
66830;SDS011;53739;44.224;22.528;2024-01-06T11:16:45;158.82;;;80.10;;
66830;SDS011;53739;44.224;22.528;2024-01-06T11:21:56;187.70;;;92.68;;
66830;SDS011;53739;44.224;22.528;2024-01-06T11:24:22;181.98;;;88.95;;
66830;SDS011;53739;44.224;22.528;2024-01-06T11:26:52;218.38;;;101.10;;
66830;SDS011;53739;44.224;22.528;2024-01-06T11:29:19;266.27;;;115.05;;
66830;SDS011;53739;44.224;22.528;2024-01-06T11:32:16;262.15;;;125.65;;
66830;SDS011;53739;44.224;22.528;2024-01-06T11:34:36;264.58;;;130.45;;
66830;SDS011;53739;44.224;22.528;2024-01-06T11:37:02;244.07;;;120.75;;
66830;SDS011;53739;44.224;22.528;2024-01-06T11:39:34;203.20;;;101.47;;
66830;SDS011;53739;44.224;22.528;2024-01-06T11:42:01;248.93;;;121.28;;
66830;SDS011;53739;44.224;22.528;2024-01-06T11:44:28;216.02;;;110.55;;
66830;SDS011;53739;44.224;22.528;2024-01-06T11:46:57;167.93;;;88.85;;
66830;SDS011;53739;44.224;22.528;2024-01-06T11:49:27;177.48;;;95.53;;
66830;SDS011;53739;44.224;22.528;2024-01-06T11:51:54;187.35;;;98.07;;
66830;SDS011;53739;44.224;22.528;2024-01-06T11:54:23;207.57;;;106.10;;
66830;SDS011;53739;44.224;22.528;2024-01-06T11:56:49;198.00;;;106.90;;
66830;SDS011;53739;44.224;22.528;2024-01-06T11:59:19;204.50;;;113.57;;
66830;SDS011;53739;44.224;22.528;2024-01-06T12:01:45;224.77;;;113.50;;
66830;SDS011;53739;44.224;22.528;2024-01-06T12:04:14;267.38;;;133.50;;
66830;SDS011;53739;44.224;22.528;2024-01-06T12:06:41;265.33;;;137.45;;
66830;SDS011;53739;44.224;22.528;2024-01-06T12:09:10;275.42;;;134.90;;
66830;SDS011;53739;44.224;22.528;2024-01-06T12:11:39;250.57;;;129.75;;
66830;SDS011;53739;44.224;22.528;2024-01-06T12:14:05;268.70;;;137.68;;
66830;SDS011;53739;44.224;22.528;2024-01-06T12:16:31;261.00;;;132.80;;
66830;SDS011;53739;44.224;22.528;2024-01-06T12:18:58;271.83;;;140.57;;
66830;SDS011;53739;44.224;22.528;2024-01-06T12:21:29;263.40;;;141.13;;
66830;SDS011;53739;44.224;22.528;2024-01-06T12:24:15;268.58;;;139.43;;
66830;SDS011;53739;44.224;22.528;2024-01-06T12:26:46;270.95;;;141.93;;
66830;SDS011;53739;44.224;22.528;2024-01-06T12:29:12;269.92;;;145.60;;
66830;SDS011;53739;44.224;22.528;2024-01-06T12:31:42;268.45;;;143.27;;
66830;SDS011;53739;44.224;22.528;2024-01-06T12:34:09;279.40;;;145.30;;
66830;SDS011;53739;44.224;22.528;2024-01-06T12:36:37;250.07;;;133.00;;
66830;SDS011;53739;44.224;22.528;2024-01-06T12:39:04;202.52;;;111.40;;
66830;SDS011;53739;44.224;22.528;2024-01-06T12:41:30;138.10;;;78.63;;
66830;SDS011;53739;44.224;22.528;2024-01-06T12:44:00;169.18;;;93.15;;
66830;SDS011;53739;44.224;22.528;2024-01-06T12:46:27;125.35;;;62.72;;
66830;SDS011;53739;44.224;22.528;2024-01-06T12:48:53;204.25;;;94.50;;
66830;SDS011;53739;44.224;22.528;2024-01-06T12:51:19;161.98;;;82.00;;
66830;SDS011;53739;44.224;22.528;2024-01-06T12:53:45;163.27;;;70.80;;
66830;SDS011;53739;44.224;22.528;2024-01-06T12:56:11;126.80;;;60.33;;
66830;SDS011;53739;44.224;22.528;2024-01-06T12:58:40;92.93;;;48.05;;
66830;SDS011;53739;44.224;22.528;2024-01-06T13:01:06;93.43;;;47.95;;
66830;SDS011;53739;44.224;22.528;2024-01-06T13:03:32;87.30;;;45.60;;
66830;SDS011;53739;44.224;22.528;2024-01-06T13:05:59;107.40;;;56.35;;
66830;SDS011;53739;44.224;22.528;2024-01-06T13:08:25;110.10;;;58.67;;
66830;SDS011;53739;44.224;22.528;2024-01-06T13:10:53;115.32;;;59.17;;
66830;SDS011;53739;44.224;22.528;2024-01-06T13:13:19;119.88;;;63.33;;
66830;SDS011;53739;44.224;22.528;2024-01-06T13:15:45;322.33;;;148.57;;
66830;SDS011;53739;44.224;22.528;2024-01-06T13:18:11;154.30;;;82.05;;
66830;SDS011;53739;44.224;22.528;2024-01-06T13:20:38;107.18;;;57.85;;
66830;SDS011;53739;44.224;22.528;2024-01-06T13:23:06;131.27;;;64.72;;
66830;SDS011;53739;44.224;22.528;2024-01-06T13:25:32;92.13;;;49.63;;
66830;SDS011;53739;44.224;22.528;2024-01-06T13:27:58;76.57;;;43.00;;
66830;SDS011;53739;44.224;22.528;2024-01-06T13:30:25;86.38;;;46.20;;
66830;SDS011;53739;44.224;22.528;2024-01-06T13:32:51;87.50;;;51.05;;
66830;SDS011;53739;44.224;22.528;2024-01-06T13:35:19;86.70;;;48.42;;
66830;SDS011;53739;44.224;22.528;2024-01-06T13:37:46;84.20;;;44.42;;
66830;SDS011;53739;44.224;22.528;2024-01-06T13:40:13;76.20;;;41.72;;
66830;SDS011;53739;44.224;22.528;2024-01-06T13:42:39;84.03;;;43.65;;
66830;SDS011;53739;44.224;22.528;2024-01-06T13:45:06;84.18;;;47.42;;
66830;SDS011;53739;44.224;22.528;2024-01-06T13:47:32;103.20;;;54.03;;
66830;SDS011;53739;44.224;22.528;2024-01-06T13:49:58;122.90;;;63.88;;